sensor_id;sensor_type;location;lat;lon;timestamp;P1;durP1;ratioP1;P2;durP2;ratioP2
39448;SDS011;25151;45.566;9.382;2024-01-30T00:01:55;5.80;;;5.20;;
39448;SDS011;25151;45.566;9.382;2024-01-30T00:04:22;6.50;;;5.72;;
39448;SDS011;25151;45.566;9.382;2024-01-30T00:06:50;7.32;;;6.03;;
39448;SDS011;25151;45.566;9.382;2024-01-30T00:09:20;6.72;;;5.50;;
39448;SDS011;25151;45.566;9.382;2024-01-30T00:11:48;6.30;;;5.65;;
39448;SDS011;25151;45.566;9.382;2024-01-30T00:14:15;6.68;;;5.95;;
39448;SDS011;25151;45.566;9.382;2024-01-30T00:16:43;7.38;;;6.05;;
39448;SDS011;25151;45.566;9.382;2024-01-30T00:19:10;6.60;;;5.90;;
39448;SDS011;25151;45.566;9.382;2024-01-30T00:21:38;5.82;;;5.22;;
39448;SDS011;25151;45.566;9.382;2024-01-30T00:24:05;6.57;;;5.50;;
39448;SDS011;25151;45.566;9.382;2024-01-30T00:26:33;6.38;;;5.72;;
39448;SDS011;25151;45.566;9.382;2024-01-30T00:29:00;8.73;;;6.15;;
39448;SDS011;25151;45.566;9.382;2024-01-30T00:31:28;9.02;;;5.60;;
39448;SDS011;25151;45.566;9.382;2024-01-30T00:33:55;6.50;;;5.57;;
39448;SDS011;25151;45.566;9.382;2024-01-30T00:36:23;6.75;;;6.05;;
39448;SDS011;25151;45.566;9.382;2024-01-30T00:38:50;6.35;;;5.68;;
39448;SDS011;25151;45.566;9.382;2024-01-30T00:41:18;6.18;;;5.30;;
39448;SDS011;25151;45.566;9.382;2024-01-30T00:43:46;6.63;;;5.60;;
39448;SDS011;25151;45.566;9.382;2024-01-30T00:46:13;5.60;;;5.05;;
39448;SDS011;25151;45.566;9.382;2024-01-30T00:48:41;5.85;;;5.25;;
39448;SDS011;25151;45.566;9.382;2024-01-30T00:51:08;7.72;;;5.65;;
39448;SDS011;25151;45.566;9.382;2024-01-30T00:53:36;7.40;;;5.82;;
39448;SDS011;25151;45.566;9.382;2024-01-30T00:56:03;7.15;;;5.55;;
39448;SDS011;25151;45.566;9.382;2024-01-30T00:58:31;7.53;;;6.72;;
39448;SDS011;25151;45.566;9.382;2024-01-30T01:00:58;7.18;;;6.15;;
39448;SDS011;25151;45.566;9.382;2024-01-30T01:03:25;6.60;;;5.43;;
39448;SDS011;25151;45.566;9.382;2024-01-30T01:05:53;6.13;;;5.53;;
39448;SDS011;25151;45.566;9.382;2024-01-30T01:08:20;6.38;;;5.78;;
39448;SDS011;25151;45.566;9.382;2024-01-30T01:10:48;5.50;;;5.00;;
39448;SDS011;25151;45.566;9.382;2024-01-30T01:13:15;5.93;;;5.18;;
39448;SDS011;25151;45.566;9.382;2024-01-30T01:15:43;7.85;;;5.47;;
39448;SDS011;25151;45.566;9.382;2024-01-30T01:18:11;5.82;;;5.10;;
39448;SDS011;25151;45.566;9.382;2024-01-30T01:20:38;5.93;;;5.28;;
39448;SDS011;25151;45.566;9.382;2024-01-30T01:23:05;6.28;;;5.65;;
39448;SDS011;25151;45.566;9.382;2024-01-30T01:25:32;6.28;;;5.00;;
39448;SDS011;25151;45.566;9.382;2024-01-30T01:28:00;5.78;;;5.18;;
39448;SDS011;25151;45.566;9.382;2024-01-30T01:30:27;7.40;;;6.00;;
39448;SDS011;25151;45.566;9.382;2024-01-30T01:32:55;6.35;;;5.70;;
39448;SDS011;25151;45.566;9.382;2024-01-30T01:35:26;6.82;;;5.88;;
39448;SDS011;25151;45.566;9.382;2024-01-30T01:37:53;5.82;;;5.22;;
39448;SDS011;25151;45.566;9.382;2024-01-30T01:40:24;6.18;;;5.57;;
39448;SDS011;25151;45.566;9.382;2024-01-30T01:42:54;7.80;;;5.50;;
39448;SDS011;25151;45.566;9.382;2024-01-30T01:45:21;6.47;;;5.75;;
39448;SDS011;25151;45.566;9.382;2024-01-30T01:47:52;6.40;;;5.72;;
39448;SDS011;25151;45.566;9.382;2024-01-30T01:50:18;6.83;;;5.97;;
39448;SDS011;25151;45.566;9.382;2024-01-30T01:52:48;6.55;;;5.47;;
39448;SDS011;25151;45.566;9.382;2024-01-30T01:55:16;5.85;;;5.25;;
39448;SDS011;25151;45.566;9.382;2024-01-30T01:57:47;6.25;;;5.13;;
39448;SDS011;25151;45.566;9.382;2024-01-30T02:00:14;5.95;;;5.35;;
39448;SDS011;25151;45.566;9.382;2024-01-30T02:02:42;7.10;;;5.97;;
39448;SDS011;25151;45.566;9.382;2024-01-30T02:05:11;6.50;;;5.45;;
39448;SDS011;25151;45.566;9.382;2024-01-30T02:07:38;5.97;;;5.38;;
39448;SDS011;25151;45.566;9.382;2024-01-30T02:10:07;7.60;;;5.80;;
39448;SDS011;25151;45.566;9.382;2024-01-30T02:12:35;6.75;;;5.70;;
39448;SDS011;25151;45.566;9.382;2024-01-30T02:15:03;6.00;;;5.38;;
39448;SDS011;25151;45.566;9.382;2024-01-30T02:17:30;6.45;;;5.72;;
39448;SDS011;25151;45.566;9.382;2024-01-30T02:19:58;7.72;;;6.20;;
39448;SDS011;25151;45.566;9.382;2024-01-30T02:22:25;6.68;;;5.57;;
39448;SDS011;25151;45.566;9.382;2024-01-30T02:24:52;6.10;;;5.38;;
39448;SDS011;25151;45.566;9.382;2024-01-30T02:27:20;6.25;;;5.65;;
39448;SDS011;25151;45.566;9.382;2024-01-30T02:29:47;5.95;;;5.30;;
39448;SDS011;25151;45.566;9.382;2024-01-30T02:32:15;6.32;;;5.63;;
39448;SDS011;25151;45.566;9.382;2024-01-30T02:34:42;5.63;;;5.03;;
39448;SDS011;25151;45.566;9.382;2024-01-30T02:37:10;6.60;;;5.38;;
39448;SDS011;25151;45.566;9.382;2024-01-30T02:39:37;5.40;;;4.90;;
39448;SDS011;25151;45.566;9.382;2024-01-30T02:42:05;6.07;;;5.32;;
39448;SDS011;25151;45.566;9.382;2024-01-30T02:44:32;6.93;;;6.13;;
39448;SDS011;25151;45.566;9.382;2024-01-30T02:47:00;6.68;;;5.68;;
39448;SDS011;25151;45.566;9.382;2024-01-30T02:49:27;6.63;;;5.82;;
39448;SDS011;25151;45.566;9.382;2024-01-30T02:51:55;7.18;;;5.88;;
39448;SDS011;25151;45.566;9.382;2024-01-30T02:54:23;6.88;;;5.50;;
39448;SDS011;25151;45.566;9.382;2024-01-30T02:56:50;5.78;;;5.22;;
39448;SDS011;25151;45.566;9.382;2024-01-30T02:59:17;6.60;;;5.63;;
39448;SDS011;25151;45.566;9.382;2024-01-30T03:01:45;6.25;;;5.65;;
39448;SDS011;25151;45.566;9.382;2024-01-30T03:04:13;6.65;;;5.72;;
39448;SDS011;25151;45.566;9.382;2024-01-30T03:06:44;6.90;;;5.57;;
39448;SDS011;25151;45.566;9.382;2024-01-30T03:09:16;6.63;;;5.68;;
39448;SDS011;25151;45.566;9.382;2024-01-30T03:11:43;6.57;;;5.95;;
39448;SDS011;25151;45.566;9.382;2024-01-30T03:14:11;6.30;;;5.70;;
39448;SDS011;25151;45.566;9.382;2024-01-30T03:16:39;6.43;;;5.45;;
39448;SDS011;25151;45.566;9.382;2024-01-30T03:19:06;7.93;;;6.20;;
39448;SDS011;25151;45.566;9.382;2024-01-30T03:21:34;8.23;;;6.22;;
39448;SDS011;25151;45.566;9.382;2024-01-30T03:24:02;7.00;;;5.70;;
39448;SDS011;25151;45.566;9.382;2024-01-30T03:26:29;7.60;;;6.10;;
39448;SDS011;25151;45.566;9.382;2024-01-30T03:28:56;5.82;;;5.20;;
39448;SDS011;25151;45.566;9.382;2024-01-30T03:31:24;6.60;;;5.90;;
39448;SDS011;25151;45.566;9.382;2024-01-30T03:33:52;7.68;;;5.68;;
39448;SDS011;25151;45.566;9.382;2024-01-30T03:36:19;6.47;;;5.68;;
39448;SDS011;25151;45.566;9.382;2024-01-30T03:38:47;7.00;;;6.30;;
39448;SDS011;25151;45.566;9.382;2024-01-30T03:41:14;7.45;;;5.68;;
39448;SDS011;25151;45.566;9.382;2024-01-30T03:43:42;6.32;;;5.72;;
39448;SDS011;25151;45.566;9.382;2024-01-30T03:46:11;7.90;;;5.45;;
39448;SDS011;25151;45.566;9.382;2024-01-30T03:48:38;8.73;;;6.18;;
39448;SDS011;25151;45.566;9.382;2024-01-30T03:51:06;6.93;;;5.40;;
39448;SDS011;25151;45.566;9.382;2024-01-30T03:53:33;6.63;;;5.65;;
39448;SDS011;25151;45.566;9.382;2024-01-30T03:56:01;6.75;;;5.53;;
39448;SDS011;25151;45.566;9.382;2024-01-30T03:58:28;7.38;;;5.95;;
39448;SDS011;25151;45.566;9.382;2024-01-30T04:00:56;6.30;;;5.45;;
39448;SDS011;25151;45.566;9.382;2024-01-30T04:03:23;6.97;;;5.93;;
39448;SDS011;25151;45.566;9.382;2024-01-30T04:05:51;7.43;;;6.05;;
39448;SDS011;25151;45.566;9.382;2024-01-30T04:08:19;6.43;;;5.80;;
39448;SDS011;25151;45.566;9.382;2024-01-30T04:10:47;6.60;;;5.80;;
39448;SDS011;25151;45.566;9.382;2024-01-30T04:13:15;8.02;;;5.60;;
39448;SDS011;25151;45.566;9.382;2024-01-30T04:15:42;6.38;;;5.70;;
39448;SDS011;25151;45.566;9.382;2024-01-30T04:18:10;8.20;;;5.70;;
39448;SDS011;25151;45.566;9.382;2024-01-30T04:20:37;8.65;;;6.10;;
39448;SDS011;25151;45.566;9.382;2024-01-30T04:23:04;10.05;;;5.40;;
39448;SDS011;25151;45.566;9.382;2024-01-30T04:25:32;6.82;;;6.13;;
39448;SDS011;25151;45.566;9.382;2024-01-30T04:27:59;6.68;;;5.63;;
39448;SDS011;25151;45.566;9.382;2024-01-30T04:30:27;8.88;;;6.20;;
39448;SDS011;25151;45.566;9.382;2024-01-30T04:32:54;7.35;;;6.15;;
39448;SDS011;25151;45.566;9.382;2024-01-30T04:35:22;8.27;;;6.40;;
39448;SDS011;25151;45.566;9.382;2024-01-30T04:37:51;7.47;;;5.85;;
39448;SDS011;25151;45.566;9.382;2024-01-30T04:40:19;6.38;;;5.47;;
39448;SDS011;25151;45.566;9.382;2024-01-30T04:42:46;7.50;;;6.30;;
39448;SDS011;25151;45.566;9.382;2024-01-30T04:45:14;6.82;;;5.75;;
39448;SDS011;25151;45.566;9.382;2024-01-30T04:47:42;6.65;;;5.82;;
39448;SDS011;25151;45.566;9.382;2024-01-30T04:50:09;7.03;;;6.32;;
39448;SDS011;25151;45.566;9.382;2024-01-30T04:52:37;6.53;;;5.72;;
39448;SDS011;25151;45.566;9.382;2024-01-30T04:55:05;6.72;;;5.90;;
39448;SDS011;25151;45.566;9.382;2024-01-30T04:57:32;7.75;;;5.88;;
39448;SDS011;25151;45.566;9.382;2024-01-30T05:00:00;7.97;;;6.28;;
39448;SDS011;25151;45.566;9.382;2024-01-30T05:02:28;8.00;;;6.32;;
39448;SDS011;25151;45.566;9.382;2024-01-30T05:04:56;7.38;;;6.40;;
39448;SDS011;25151;45.566;9.382;2024-01-30T05:07:24;7.75;;;6.38;;
39448;SDS011;25151;45.566;9.382;2024-01-30T05:09:52;5.63;;;5.00;;
39448;SDS011;25151;45.566;9.382;2024-01-30T05:12:19;7.88;;;6.25;;
39448;SDS011;25151;45.566;9.382;2024-01-30T05:14:47;7.75;;;6.28;;
39448;SDS011;25151;45.566;9.382;2024-01-30T05:17:14;7.25;;;5.80;;
39448;SDS011;25151;45.566;9.382;2024-01-30T05:19:42;7.60;;;5.80;;
39448;SDS011;25151;45.566;9.382;2024-01-30T05:22:10;6.40;;;5.70;;
39448;SDS011;25151;45.566;9.382;2024-01-30T05:24:41;7.65;;;5.90;;
39448;SDS011;25151;45.566;9.382;2024-01-30T05:27:08;6.72;;;5.93;;
39448;SDS011;25151;45.566;9.382;2024-01-30T05:29:36;6.80;;;5.45;;
39448;SDS011;25151;45.566;9.382;2024-01-30T05:32:03;8.07;;;6.20;;
39448;SDS011;25151;45.566;9.382;2024-01-30T05:34:31;7.68;;;6.38;;
39448;SDS011;25151;45.566;9.382;2024-01-30T05:36:58;8.25;;;6.68;;
39448;SDS011;25151;45.566;9.382;2024-01-30T05:39:28;8.40;;;6.40;;
39448;SDS011;25151;45.566;9.382;2024-01-30T05:41:58;7.22;;;5.78;;
39448;SDS011;25151;45.566;9.382;2024-01-30T05:44:25;7.30;;;6.35;;
39448;SDS011;25151;45.566;9.382;2024-01-30T05:46:52;7.82;;;5.53;;
39448;SDS011;25151;45.566;9.382;2024-01-30T05:49:20;9.43;;;6.30;;
39448;SDS011;25151;45.566;9.382;2024-01-30T05:51:49;8.63;;;6.90;;
39448;SDS011;25151;45.566;9.382;2024-01-30T05:54:18;6.85;;;6.15;;
39448;SDS011;25151;45.566;9.382;2024-01-30T05:56:53;7.63;;;6.28;;
39448;SDS011;25151;45.566;9.382;2024-01-30T05:59:25;8.45;;;6.20;;
39448;SDS011;25151;45.566;9.382;2024-01-30T06:01:54;7.40;;;6.10;;
39448;SDS011;25151;45.566;9.382;2024-01-30T06:04:21;7.20;;;6.28;;
39448;SDS011;25151;45.566;9.382;2024-01-30T06:06:49;6.47;;;5.78;;
39448;SDS011;25151;45.566;9.382;2024-01-30T06:09:16;7.32;;;6.15;;
39448;SDS011;25151;45.566;9.382;2024-01-30T06:11:44;7.00;;;5.97;;
39448;SDS011;25151;45.566;9.382;2024-01-30T06:14:14;7.80;;;6.43;;
39448;SDS011;25151;45.566;9.382;2024-01-30T06:16:42;7.43;;;6.03;;
39448;SDS011;25151;45.566;9.382;2024-01-30T06:19:12;7.53;;;6.25;;
39448;SDS011;25151;45.566;9.382;2024-01-30T06:21:40;7.38;;;6.50;;
39448;SDS011;25151;45.566;9.382;2024-01-30T06:24:07;8.73;;;5.53;;
39448;SDS011;25151;45.566;9.382;2024-01-30T06:29:05;8.52;;;6.38;;
39448;SDS011;25151;45.566;9.382;2024-01-30T06:31:32;6.78;;;6.00;;
39448;SDS011;25151;45.566;9.382;2024-01-30T06:34:05;8.13;;;6.47;;
39448;SDS011;25151;45.566;9.382;2024-01-30T06:36:33;8.38;;;6.20;;
39448;SDS011;25151;45.566;9.382;2024-01-30T06:39:00;7.50;;;6.47;;
39448;SDS011;25151;45.566;9.382;2024-01-30T06:41:28;8.23;;;6.57;;
39448;SDS011;25151;45.566;9.382;2024-01-30T06:43:56;8.05;;;6.40;;
39448;SDS011;25151;45.566;9.382;2024-01-30T06:46:23;6.90;;;6.00;;
39448;SDS011;25151;45.566;9.382;2024-01-30T06:48:50;7.65;;;6.05;;
39448;SDS011;25151;45.566;9.382;2024-01-30T06:51:21;6.95;;;6.25;;
39448;SDS011;25151;45.566;9.382;2024-01-30T06:53:59;8.15;;;6.70;;
39448;SDS011;25151;45.566;9.382;2024-01-30T06:56:32;7.65;;;6.05;;
39448;SDS011;25151;45.566;9.382;2024-01-30T06:58:59;7.70;;;6.60;;
39448;SDS011;25151;45.566;9.382;2024-01-30T07:01:30;9.63;;;7.22;;
39448;SDS011;25151;45.566;9.382;2024-01-30T07:06:24;7.57;;;6.78;;
39448;SDS011;25151;45.566;9.382;2024-01-30T07:08:54;7.03;;;6.32;;
39448;SDS011;25151;45.566;9.382;2024-01-30T07:11:22;8.10;;;5.88;;
39448;SDS011;25151;45.566;9.382;2024-01-30T07:13:53;8.10;;;6.75;;
39448;SDS011;25151;45.566;9.382;2024-01-30T07:16:20;7.65;;;5.85;;
39448;SDS011;25151;45.566;9.382;2024-01-30T07:18:49;8.00;;;6.78;;
39448;SDS011;25151;45.566;9.382;2024-01-30T07:21:19;7.50;;;6.47;;
39448;SDS011;25151;45.566;9.382;2024-01-30T07:23:50;9.88;;;7.20;;
39448;SDS011;25151;45.566;9.382;2024-01-30T07:26:18;10.45;;;6.90;;
39448;SDS011;25151;45.566;9.382;2024-01-30T07:28:44;10.10;;;7.13;;
39448;SDS011;25151;45.566;9.382;2024-01-30T07:31:12;9.55;;;6.93;;
39448;SDS011;25151;45.566;9.382;2024-01-30T07:33:39;8.85;;;6.57;;
39448;SDS011;25151;45.566;9.382;2024-01-30T07:36:07;11.05;;;6.53;;
39448;SDS011;25151;45.566;9.382;2024-01-30T07:38:33;10.80;;;7.20;;
39448;SDS011;25151;45.566;9.382;2024-01-30T07:41:01;9.20;;;6.35;;
39448;SDS011;25151;45.566;9.382;2024-01-30T07:43:29;8.63;;;6.82;;
39448;SDS011;25151;45.566;9.382;2024-01-30T07:45:57;9.98;;;6.25;;
39448;SDS011;25151;45.566;9.382;2024-01-30T07:48:26;12.23;;;7.07;;
39448;SDS011;25151;45.566;9.382;2024-01-30T07:50:58;13.55;;;7.65;;
39448;SDS011;25151;45.566;9.382;2024-01-30T07:53:26;9.15;;;6.72;;
39448;SDS011;25151;45.566;9.382;2024-01-30T07:55:52;13.32;;;7.03;;
39448;SDS011;25151;45.566;9.382;2024-01-30T07:58:19;8.32;;;6.28;;
39448;SDS011;25151;45.566;9.382;2024-01-30T08:00:46;8.40;;;6.22;;
39448;SDS011;25151;45.566;9.382;2024-01-30T08:03:12;7.78;;;6.25;;
39448;SDS011;25151;45.566;9.382;2024-01-30T08:05:41;11.50;;;6.70;;
39448;SDS011;25151;45.566;9.382;2024-01-30T08:08:09;9.13;;;7.15;;
39448;SDS011;25151;45.566;9.382;2024-01-30T08:10:36;9.00;;;7.53;;
39448;SDS011;25151;45.566;9.382;2024-01-30T08:13:03;13.57;;;8.00;;
39448;SDS011;25151;45.566;9.382;2024-01-30T08:15:30;9.35;;;7.63;;
39448;SDS011;25151;45.566;9.382;2024-01-30T08:17:57;9.68;;;7.57;;
39448;SDS011;25151;45.566;9.382;2024-01-30T08:20:25;10.38;;;6.63;;
39448;SDS011;25151;45.566;9.382;2024-01-30T08:22:52;8.90;;;7.40;;
39448;SDS011;25151;45.566;9.382;2024-01-30T08:25:19;11.57;;;7.43;;
39448;SDS011;25151;45.566;9.382;2024-01-30T08:27:45;14.43;;;8.70;;
39448;SDS011;25151;45.566;9.382;2024-01-30T08:30:13;9.95;;;7.55;;
39448;SDS011;25151;45.566;9.382;2024-01-30T08:32:40;8.35;;;6.80;;
39448;SDS011;25151;45.566;9.382;2024-01-30T08:35:07;10.73;;;7.68;;
39448;SDS011;25151;45.566;9.382;2024-01-30T08:37:35;8.75;;;7.05;;
39448;SDS011;25151;45.566;9.382;2024-01-30T08:40:02;9.18;;;7.35;;
39448;SDS011;25151;45.566;9.382;2024-01-30T08:42:30;11.90;;;7.40;;
39448;SDS011;25151;45.566;9.382;2024-01-30T08:44:58;11.50;;;7.88;;
39448;SDS011;25151;45.566;9.382;2024-01-30T08:47:31;9.93;;;7.13;;
39448;SDS011;25151;45.566;9.382;2024-01-30T08:49:59;9.57;;;7.45;;
39448;SDS011;25151;45.566;9.382;2024-01-30T08:52:33;11.23;;;7.88;;
39448;SDS011;25151;45.566;9.382;2024-01-30T08:55:00;9.20;;;7.28;;
39448;SDS011;25151;45.566;9.382;2024-01-30T08:57:26;10.35;;;7.75;;
39448;SDS011;25151;45.566;9.382;2024-01-30T08:59:54;10.38;;;7.80;;
39448;SDS011;25151;45.566;9.382;2024-01-30T09:02:22;8.70;;;7.18;;
39448;SDS011;25151;45.566;9.382;2024-01-30T09:04:48;9.82;;;7.53;;
39448;SDS011;25151;45.566;9.382;2024-01-30T09:07:19;10.23;;;7.10;;
39448;SDS011;25151;45.566;9.382;2024-01-30T09:09:49;9.93;;;7.45;;
39448;SDS011;25151;45.566;9.382;2024-01-30T09:12:16;7.90;;;6.82;;
39448;SDS011;25151;45.566;9.382;2024-01-30T09:14:43;9.55;;;7.25;;
39448;SDS011;25151;45.566;9.382;2024-01-30T09:17:10;11.93;;;7.65;;
39448;SDS011;25151;45.566;9.382;2024-01-30T09:19:38;9.38;;;7.53;;
39448;SDS011;25151;45.566;9.382;2024-01-30T09:22:09;9.13;;;7.50;;
39448;SDS011;25151;45.566;9.382;2024-01-30T09:24:36;10.25;;;7.30;;
39448;SDS011;25151;45.566;9.382;2024-01-30T09:27:11;11.38;;;7.60;;
39448;SDS011;25151;45.566;9.382;2024-01-30T09:29:41;7.88;;;6.65;;
39448;SDS011;25151;45.566;9.382;2024-01-30T09:32:10;11.15;;;7.45;;
39448;SDS011;25151;45.566;9.382;2024-01-30T09:34:40;9.57;;;7.90;;
39448;SDS011;25151;45.566;9.382;2024-01-30T09:37:12;10.23;;;7.30;;
39448;SDS011;25151;45.566;9.382;2024-01-30T09:39:43;9.30;;;8.10;;
39448;SDS011;25151;45.566;9.382;2024-01-30T09:44:49;9.75;;;7.43;;
39448;SDS011;25151;45.566;9.382;2024-01-30T09:47:17;10.88;;;8.27;;
39448;SDS011;25151;45.566;9.382;2024-01-30T09:49:47;12.80;;;7.13;;
39448;SDS011;25151;45.566;9.382;2024-01-30T09:52:21;10.88;;;8.25;;
39448;SDS011;25151;45.566;9.382;2024-01-30T09:54:47;9.68;;;7.38;;
39448;SDS011;25151;45.566;9.382;2024-01-30T09:57:21;9.02;;;7.80;;
39448;SDS011;25151;45.566;9.382;2024-01-30T09:59:51;9.75;;;7.90;;
39448;SDS011;25151;45.566;9.382;2024-01-30T10:02:23;8.55;;;7.32;;
39448;SDS011;25151;45.566;9.382;2024-01-30T10:04:50;7.68;;;6.78;;
39448;SDS011;25151;45.566;9.382;2024-01-30T10:07:18;9.35;;;6.80;;
39448;SDS011;25151;45.566;9.382;2024-01-30T10:09:46;8.85;;;7.40;;
39448;SDS011;25151;45.566;9.382;2024-01-30T10:12:14;9.65;;;7.50;;
39448;SDS011;25151;45.566;9.382;2024-01-30T10:14:41;8.30;;;6.28;;
39448;SDS011;25151;45.566;9.382;2024-01-30T10:17:09;11.13;;;7.45;;
39448;SDS011;25151;45.566;9.382;2024-01-30T10:19:36;9.55;;;7.40;;
39448;SDS011;25151;45.566;9.382;2024-01-30T10:22:07;11.48;;;7.70;;
39448;SDS011;25151;45.566;9.382;2024-01-30T10:24:35;9.52;;;7.72;;
39448;SDS011;25151;45.566;9.382;2024-01-30T10:27:02;9.85;;;7.47;;
39448;SDS011;25151;45.566;9.382;2024-01-30T10:29:31;8.55;;;7.30;;
39448;SDS011;25151;45.566;9.382;2024-01-30T10:32:02;10.63;;;8.40;;
39448;SDS011;25151;45.566;9.382;2024-01-30T10:34:34;9.50;;;7.70;;
39448;SDS011;25151;45.566;9.382;2024-01-30T10:37:07;9.30;;;8.07;;
39448;SDS011;25151;45.566;9.382;2024-01-30T10:39:41;9.30;;;7.65;;
39448;SDS011;25151;45.566;9.382;2024-01-30T10:42:13;13.90;;;7.38;;
39448;SDS011;25151;45.566;9.382;2024-01-30T10:47:39;11.57;;;7.63;;
39448;SDS011;25151;45.566;9.382;2024-01-30T10:50:09;8.85;;;7.40;;
39448;SDS011;25151;45.566;9.382;2024-01-30T10:52:39;12.67;;;7.57;;
39448;SDS011;25151;45.566;9.382;2024-01-30T10:55:11;11.37;;;8.00;;
39448;SDS011;25151;45.566;9.382;2024-01-30T11:00:09;10.00;;;7.43;;
39448;SDS011;25151;45.566;9.382;2024-01-30T11:02:40;9.43;;;7.50;;
39448;SDS011;25151;45.566;9.382;2024-01-30T11:05:22;10.10;;;7.47;;
39448;SDS011;25151;45.566;9.382;2024-01-30T11:07:56;9.93;;;7.22;;
39448;SDS011;25151;45.566;9.382;2024-01-30T11:10:24;10.13;;;8.75;;
39448;SDS011;25151;45.566;9.382;2024-01-30T11:12:50;9.50;;;7.22;;
39448;SDS011;25151;45.566;9.382;2024-01-30T11:15:18;8.50;;;7.32;;
39448;SDS011;25151;45.566;9.382;2024-01-30T11:20:21;9.75;;;7.78;;
39448;SDS011;25151;45.566;9.382;2024-01-30T11:22:56;8.07;;;7.10;;
39448;SDS011;25151;45.566;9.382;2024-01-30T11:25:31;10.38;;;7.40;;
39448;SDS011;25151;45.566;9.382;2024-01-30T11:28:00;8.95;;;7.47;;
39448;SDS011;25151;45.566;9.382;2024-01-30T11:30:46;8.93;;;7.60;;
39448;SDS011;25151;45.566;9.382;2024-01-30T11:33:29;9.88;;;8.05;;
39448;SDS011;25151;45.566;9.382;2024-01-30T11:35:59;8.30;;;7.40;;
39448;SDS011;25151;45.566;9.382;2024-01-30T11:38:27;7.72;;;6.85;;
39448;SDS011;25151;45.566;9.382;2024-01-30T11:40:59;12.98;;;8.43;;
39448;SDS011;25151;45.566;9.382;2024-01-30T11:43:30;11.45;;;8.45;;
39448;SDS011;25151;45.566;9.382;2024-01-30T11:45:58;10.73;;;7.78;;
39448;SDS011;25151;45.566;9.382;2024-01-30T11:48:26;10.82;;;8.15;;
39448;SDS011;25151;45.566;9.382;2024-01-30T11:50:53;10.55;;;8.30;;
39448;SDS011;25151;45.566;9.382;2024-01-30T11:53:20;11.18;;;8.82;;
39448;SDS011;25151;45.566;9.382;2024-01-30T11:55:51;10.48;;;8.75;;
39448;SDS011;25151;45.566;9.382;2024-01-30T11:58:18;11.30;;;8.15;;
39448;SDS011;25151;45.566;9.382;2024-01-30T12:00:52;9.95;;;7.60;;
39448;SDS011;25151;45.566;9.382;2024-01-30T12:03:23;9.82;;;7.47;;
39448;SDS011;25151;45.566;9.382;2024-01-30T12:05:57;11.48;;;8.52;;
39448;SDS011;25151;45.566;9.382;2024-01-30T12:08:26;9.10;;;7.68;;
39448;SDS011;25151;45.566;9.382;2024-01-30T12:10:57;9.38;;;8.32;;
39448;SDS011;25151;45.566;9.382;2024-01-30T12:13:33;8.85;;;7.68;;
39448;SDS011;25151;45.566;9.382;2024-01-30T12:16:00;11.02;;;8.48;;
39448;SDS011;25151;45.566;9.382;2024-01-30T12:18:28;12.10;;;8.52;;
39448;SDS011;25151;45.566;9.382;2024-01-30T12:21:01;10.43;;;8.77;;
39448;SDS011;25151;45.566;9.382;2024-01-30T12:23:28;12.50;;;8.23;;
39448;SDS011;25151;45.566;9.382;2024-01-30T12:25:56;10.05;;;7.80;;
39448;SDS011;25151;45.566;9.382;2024-01-30T12:28:24;10.40;;;8.02;;
39448;SDS011;25151;45.566;9.382;2024-01-30T12:31:01;8.82;;;7.70;;
39448;SDS011;25151;45.566;9.382;2024-01-30T12:33:31;10.05;;;8.10;;
39448;SDS011;25151;45.566;9.382;2024-01-30T12:36:01;9.93;;;8.07;;
39448;SDS011;25151;45.566;9.382;2024-01-30T12:38:30;10.20;;;7.90;;
39448;SDS011;25151;45.566;9.382;2024-01-30T12:40:57;10.93;;;6.90;;
39448;SDS011;25151;45.566;9.382;2024-01-30T12:43:29;9.63;;;7.50;;
39448;SDS011;25151;45.566;9.382;2024-01-30T12:45:57;11.63;;;7.55;;
39448;SDS011;25151;45.566;9.382;2024-01-30T12:48:24;9.98;;;7.82;;
39448;SDS011;25151;45.566;9.382;2024-01-30T12:50:55;9.10;;;7.57;;
39448;SDS011;25151;45.566;9.382;2024-01-30T12:53:23;9.52;;;7.32;;
39448;SDS011;25151;45.566;9.382;2024-01-30T12:55:56;10.15;;;7.97;;
39448;SDS011;25151;45.566;9.382;2024-01-30T12:58:23;9.73;;;6.50;;
39448;SDS011;25151;45.566;9.382;2024-01-30T13:00:49;7.72;;;6.55;;
39448;SDS011;25151;45.566;9.382;2024-01-30T13:03:16;8.77;;;7.47;;
39448;SDS011;25151;45.566;9.382;2024-01-30T13:05:44;8.73;;;7.32;;
39448;SDS011;25151;45.566;9.382;2024-01-30T13:08:09;9.80;;;7.47;;
39448;SDS011;25151;45.566;9.382;2024-01-30T13:10:36;9.32;;;6.90;;
39448;SDS011;25151;45.566;9.382;2024-01-30T13:13:03;10.65;;;7.38;;
39448;SDS011;25151;45.566;9.382;2024-01-30T13:15:34;9.25;;;6.72;;
39448;SDS011;25151;45.566;9.382;2024-01-30T13:18:01;8.60;;;6.90;;
39448;SDS011;25151;45.566;9.382;2024-01-30T13:20:30;9.70;;;7.57;;
39448;SDS011;25151;45.566;9.382;2024-01-30T13:22:57;9.75;;;6.97;;
39448;SDS011;25151;45.566;9.382;2024-01-30T13:25:27;8.55;;;6.68;;
39448;SDS011;25151;45.566;9.382;2024-01-30T13:27:55;8.85;;;7.03;;
39448;SDS011;25151;45.566;9.382;2024-01-30T13:30:24;8.57;;;7.32;;
39448;SDS011;25151;45.566;9.382;2024-01-30T13:32:54;8.10;;;6.65;;
39448;SDS011;25151;45.566;9.382;2024-01-30T13:35:30;7.72;;;6.22;;
39448;SDS011;25151;45.566;9.382;2024-01-30T13:38:05;10.50;;;7.20;;
39448;SDS011;25151;45.566;9.382;2024-01-30T13:40:35;8.35;;;6.70;;
39448;SDS011;25151;45.566;9.382;2024-01-30T13:43:08;8.35;;;6.88;;
39448;SDS011;25151;45.566;9.382;2024-01-30T13:45:38;8.43;;;6.57;;
39448;SDS011;25151;45.566;9.382;2024-01-30T13:48:07;9.52;;;6.65;;
39448;SDS011;25151;45.566;9.382;2024-01-30T13:50:38;7.32;;;6.35;;
39448;SDS011;25151;45.566;9.382;2024-01-30T13:53:08;7.93;;;6.47;;
39448;SDS011;25151;45.566;9.382;2024-01-30T13:55:35;6.93;;;6.23;;
39448;SDS011;25151;45.566;9.382;2024-01-30T13:58:04;7.93;;;6.18;;
39448;SDS011;25151;45.566;9.382;2024-01-30T14:00:35;8.30;;;6.43;;
39448;SDS011;25151;45.566;9.382;2024-01-30T14:03:05;6.75;;;5.70;;
39448;SDS011;25151;45.566;9.382;2024-01-30T14:05:35;13.18;;;7.03;;
39448;SDS011;25151;45.566;9.382;2024-01-30T14:08:05;8.57;;;6.22;;
39448;SDS011;25151;45.566;9.382;2024-01-30T14:10:34;7.32;;;6.18;;
39448;SDS011;25151;45.566;9.382;2024-01-30T14:13:01;7.68;;;6.30;;
39448;SDS011;25151;45.566;9.382;2024-01-30T14:15:29;9.63;;;6.22;;
39448;SDS011;25151;45.566;9.382;2024-01-30T14:17:56;7.00;;;5.75;;
39448;SDS011;25151;45.566;9.382;2024-01-30T14:20:24;8.90;;;6.07;;
39448;SDS011;25151;45.566;9.382;2024-01-30T14:22:50;8.25;;;6.13;;
39448;SDS011;25151;45.566;9.382;2024-01-30T14:25:21;7.45;;;6.05;;
39448;SDS011;25151;45.566;9.382;2024-01-30T14:27:51;7.00;;;6.30;;
39448;SDS011;25151;45.566;9.382;2024-01-30T14:30:21;7.70;;;6.20;;
39448;SDS011;25151;45.566;9.382;2024-01-30T14:32:47;7.40;;;6.18;;
39448;SDS011;25151;45.566;9.382;2024-01-30T14:35:15;7.60;;;5.90;;
39448;SDS011;25151;45.566;9.382;2024-01-30T14:37:44;7.30;;;6.38;;
39448;SDS011;25151;45.566;9.382;2024-01-30T14:40:11;7.55;;;6.38;;
39448;SDS011;25151;45.566;9.382;2024-01-30T14:42:40;7.72;;;6.68;;
39448;SDS011;25151;45.566;9.382;2024-01-30T14:45:13;8.82;;;7.18;;
39448;SDS011;25151;45.566;9.382;2024-01-30T14:47:41;8.40;;;6.75;;
39448;SDS011;25151;45.566;9.382;2024-01-30T14:50:09;8.68;;;7.15;;
39448;SDS011;25151;45.566;9.382;2024-01-30T14:52:35;8.68;;;6.30;;
39448;SDS011;25151;45.566;9.382;2024-01-30T14:55:05;10.07;;;6.63;;
39448;SDS011;25151;45.566;9.382;2024-01-30T14:57:33;10.70;;;6.57;;
39448;SDS011;25151;45.566;9.382;2024-01-30T15:00:00;7.75;;;6.78;;
39448;SDS011;25151;45.566;9.382;2024-01-30T15:02:30;9.57;;;7.38;;
39448;SDS011;25151;45.566;9.382;2024-01-30T15:04:56;9.00;;;6.65;;
39448;SDS011;25151;45.566;9.382;2024-01-30T15:07:23;11.85;;;6.70;;
39448;SDS011;25151;45.566;9.382;2024-01-30T15:09:54;8.23;;;7.00;;